sensor_id;sensor_type;location;lat;lon;timestamp;pressure;altitude;pressure_sealevel;temperature;humidity
54459;BME280;40368;49.350;8.152;2023-12-29T00:00:44;1001.8;;;12.31;65.41
54459;BME280;40368;49.350;8.152;2023-12-29T00:01:44;1001.8;;;12.31;65.41
54459;BME280;40368;49.350;8.152;2023-12-29T00:02:44;1001.7;;;12.3;65.35
54459;BME280;40368;49.350;8.152;2023-12-29T00:03:44;1001.8;;;12.31;65.46
54459;BME280;40368;49.350;8.152;2023-12-29T00:04:44;1001.7;;;12.31;65.41
54459;BME280;40368;49.350;8.152;2023-12-29T00:05:44;1001.8;;;12.31;65.41
54459;BME280;40368;49.350;8.152;2023-12-29T00:06:44;1001.7;;;12.29;65.01
54459;BME280;40368;49.350;8.152;2023-12-29T00:07:44;1001.6;;;12.27;65.22
54459;BME280;40368;49.350;8.152;2023-12-29T00:08:44;1001.6;;;12.27;65.09
54459;BME280;40368;49.350;8.152;2023-12-29T00:09:44;1001.7;;;12.27;65.29
54459;BME280;40368;49.350;8.152;2023-12-29T00:10:44;1001.7;;;12.26;65.16
54459;BME280;40368;49.350;8.152;2023-12-29T00:11:44;1001.6;;;12.26;64.9
54459;BME280;40368;49.350;8.152;2023-12-29T00:12:44;1001.7;;;12.28;65.11
54459;BME280;40368;49.350;8.152;2023-12-29T00:13:44;1001.8;;;12.28;64.89
54459;BME280;40368;49.350;8.152;2023-12-29T00:14:44;1001.8;;;12.27;65.05
54459;BME280;40368;49.350;8.152;2023-12-29T00:15:44;1001.7;;;12.27;64.91
54459;BME280;40368;49.350;8.152;2023-12-29T00:16:44;1001.8;;;12.27;64.63
54459;BME280;40368;49.350;8.152;2023-12-29T00:17:44;1001.8;;;12.29;64.88
54459;BME280;40368;49.350;8.152;2023-12-29T00:18:44;1001.9;;;12.28;64.98
54459;BME280;40368;49.350;8.152;2023-12-29T00:19:44;1001.9;;;12.27;64.82
54459;BME280;40368;49.350;8.152;2023-12-29T00:20:44;1001.8;;;12.28;64.79
54459;BME280;40368;49.350;8.152;2023-12-29T00:21:44;1001.7;;;12.28;64.71
54459;BME280;40368;49.350;8.152;2023-12-29T00:22:44;1001.7;;;12.3;64.66
54459;BME280;40368;49.350;8.152;2023-12-29T00:23:44;1001.7;;;12.3;64.61
54459;BME280;40368;49.350;8.152;2023-12-29T00:24:44;1001.7;;;12.28;64.58
54459;BME280;40368;49.350;8.152;2023-12-29T00:25:44;1001.8;;;12.3;64.38
54459;BME280;40368;49.350;8.152;2023-12-29T00:26:44;1001.6;;;12.29;64.47
54459;BME280;40368;49.350;8.152;2023-12-29T00:27:44;1001.6;;;12.32;64.45
54459;BME280;40368;49.350;8.152;2023-12-29T00:28:44;1001.6;;;12.31;64.71
54459;BME280;40368;49.350;8.152;2023-12-29T00:29:44;1001.6;;;12.33;64.48
54459;BME280;40368;49.350;8.152;2023-12-29T00:30:44;1001.6;;;12.34;64.46
54459;BME280;40368;49.350;8.152;2023-12-29T00:31:44;1001.6;;;12.34;64.26
54459;BME280;40368;49.350;8.152;2023-12-29T00:32:44;1001.6;;;12.34;64.28
54459;BME280;40368;49.350;8.152;2023-12-29T00:33:44;1001.4;;;12.31;64.1
54459;BME280;40368;49.350;8.152;2023-12-29T00:34:44;1001.3;;;12.33;64.27
54459;BME280;40368;49.350;8.152;2023-12-29T00:35:44;1001.4;;;12.33;64.1
54459;BME280;40368;49.350;8.152;2023-12-29T00:36:44;1001.4;;;12.34;63.98
54459;BME280;40368;49.350;8.152;2023-12-29T00:37:44;1001.4;;;12.36;63.87
54459;BME280;40368;49.350;8.152;2023-12-29T00:38:44;1001.4;;;12.39;63.8
54459;BME280;40368;49.350;8.152;2023-12-29T00:39:44;1001.4;;;12.38;63.85
54459;BME280;40368;49.350;8.152;2023-12-29T00:40:44;1001.4;;;12.38;63.77
54459;BME280;40368;49.350;8.152;2023-12-29T00:41:44;1001.5;;;12.36;63.68
54459;BME280;40368;49.350;8.152;2023-12-29T00:42:44;1001.5;;;12.34;63.79
54459;BME280;40368;49.350;8.152;2023-12-29T00:43:44;1001.5;;;12.36;63.65
54459;BME280;40368;49.350;8.152;2023-12-29T00:44:44;1001.5;;;12.38;63.74
54459;BME280;40368;49.350;8.152;2023-12-29T00:45:44;1001.5;;;12.39;63.39
54459;BME280;40368;49.350;8.152;2023-12-29T00:46:44;1001.5;;;12.37;63.58
54459;BME280;40368;49.350;8.152;2023-12-29T00:47:44;1001.5;;;12.38;63.23
54459;BME280;40368;49.350;8.152;2023-12-29T00:48:44;1001.6;;;12.39;63.2
54459;BME280;40368;49.350;8.152;2023-12-29T00:49:44;1001.6;;;12.41;63.38
54459;BME280;40368;49.350;8.152;2023-12-29T00:50:45;1001.6;;;12.43;63.42
54459;BME280;40368;49.350;8.152;2023-12-29T00:51:44;1001.5;;;12.47;63.16
54459;BME280;40368;49.350;8.152;2023-12-29T00:52:44;1001.6;;;12.49;62.99
54459;BME280;40368;49.350;8.152;2023-12-29T00:53:44;1001.6;;;12.53;63.09
54459;BME280;40368;49.350;8.152;2023-12-29T00:54:44;1001.6;;;12.55;62.84
54459;BME280;40368;49.350;8.152;2023-12-29T00:55:44;1001.6;;;12.57;62.53
54459;BME280;40368;49.350;8.152;2023-12-29T00:56:47;1001.6;;;12.59;62.56
54459;BME280;40368;49.350;8.152;2023-12-29T00:57:44;1001.5;;;12.62;62.55
54459;BME280;40368;49.350;8.152;2023-12-29T00:58:44;1001.5;;;12.62;62.28
54459;BME280;40368;49.350;8.152;2023-12-29T00:59:46;1001.6;;;12.61;62.2
54459;BME280;40368;49.350;8.152;2023-12-29T01:00:44;1001.5;;;12.61;62.23
54459;BME280;40368;49.350;8.152;2023-12-29T01:01:44;1001.5;;;12.61;62
54459;BME280;40368;49.350;8.152;2023-12-29T01:02:44;1001.5;;;12.6;62.16
54459;BME280;40368;49.350;8.152;2023-12-29T01:03:44;1001.5;;;12.59;61.94
54459;BME280;40368;49.350;8.152;2023-12-29T01:04:44;1001.5;;;12.6;62.12
54459;BME280;40368;49.350;8.152;2023-12-29T01:05:44;1001.5;;;12.58;62
54459;BME280;40368;49.350;8.152;2023-12-29T01:06:44;1001.5;;;12.57;62.16
54459;BME280;40368;49.350;8.152;2023-12-29T01:07:44;1001.4;;;12.54;61.87
54459;BME280;40368;49.350;8.152;2023-12-29T01:08:44;1001.4;;;12.54;61.97
54459;BME280;40368;49.350;8.152;2023-12-29T01:09:44;1001.4;;;12.52;62.13
54459;BME280;40368;49.350;8.152;2023-12-29T01:11:44;1001.4;;;12.53;62.38
54459;BME280;40368;49.350;8.152;2023-12-29T01:12:44;1001.5;;;12.56;62.14
54459;BME280;40368;49.350;8.152;2023-12-29T01:13:44;1001.4;;;12.57;62.17
54459;BME280;40368;49.350;8.152;2023-12-29T01:14:44;1001.3;;;12.58;62.05
54459;BME280;40368;49.350;8.152;2023-12-29T01:15:44;1001.4;;;12.6;62
54459;BME280;40368;49.350;8.152;2023-12-29T01:16:44;1001.3;;;12.61;61.81
54459;BME280;40368;49.350;8.152;2023-12-29T01:17:44;1001.3;;;12.61;61.86
54459;BME280;40368;49.350;8.152;2023-12-29T01:18:44;1001.3;;;12.6;61.92
54459;BME280;40368;49.350;8.152;2023-12-29T01:19:44;1001.4;;;12.59;61.84
54459;BME280;40368;49.350;8.152;2023-12-29T01:20:44;1001.3;;;12.59;61.87
54459;BME280;40368;49.350;8.152;2023-12-29T01:21:44;1001.3;;;12.58;61.61
54459;BME280;40368;49.350;8.152;2023-12-29T01:22:44;1001.4;;;12.54;61.5
54459;BME280;40368;49.350;8.152;2023-12-29T01:23:44;1001.3;;;12.5;61.62
54459;BME280;40368;49.350;8.152;2023-12-29T01:24:44;1001.3;;;12.49;61.76
54459;BME280;40368;49.350;8.152;2023-12-29T01:25:44;1001.3;;;12.48;61.91
54459;BME280;40368;49.350;8.152;2023-12-29T01:26:44;1001.3;;;12.5;62.02
54459;BME280;40368;49.350;8.152;2023-12-29T01:27:44;1001.4;;;12.51;61.74
54459;BME280;40368;49.350;8.152;2023-12-29T01:28:44;1001.4;;;12.5;61.86
54459;BME280;40368;49.350;8.152;2023-12-29T01:29:44;1001.4;;;12.48;61.81
54459;BME280;40368;49.350;8.152;2023-12-29T01:30:44;1001.5;;;12.49;61.86
54459;BME280;40368;49.350;8.152;2023-12-29T01:31:44;1001.4;;;12.47;61.7
54459;BME280;40368;49.350;8.152;2023-12-29T01:32:45;1001.3;;;12.46;61.82
54459;BME280;40368;49.350;8.152;2023-12-29T01:33:44;1001.4;;;12.44;61.82
54459;BME280;40368;49.350;8.152;2023-12-29T01:34:44;1001.5;;;12.43;61.22
54459;BME280;40368;49.350;8.152;2023-12-29T01:35:44;1001.4;;;12.42;61.39
54459;BME280;40368;49.350;8.152;2023-12-29T01:36:45;1001.3;;;12.43;61.45
54459;BME280;40368;49.350;8.152;2023-12-29T01:37:44;1001.5;;;12.39;61.14
54459;BME280;40368;49.350;8.152;2023-12-29T01:38:44;1001.4;;;12.38;61.24
54459;BME280;40368;49.350;8.152;2023-12-29T01:39:44;1001.3;;;12.37;61.13
54459;BME280;40368;49.350;8.152;2023-12-29T01:40:45;1001.3;;;12.35;61.16
54459;BME280;40368;49.350;8.152;2023-12-29T01:41:44;1001.3;;;12.35;61.23
54459;BME280;40368;49.350;8.152;2023-12-29T01:42:45;1001.5;;;12.32;61.03
54459;BME280;40368;49.350;8.152;2023-12-29T01:44:44;1001.3;;;12.3;61.2
54459;BME280;40368;49.350;8.152;2023-12-29T01:44:48;1001.3;;;12.3;61.13
54459;BME280;40368;49.350;8.152;2023-12-29T01:45:44;1001.3;;;12.3;61.13
54459;BME280;40368;49.350;8.152;2023-12-29T01:46:49;1001.2;;;12.32;61.42
54459;BME280;40368;49.350;8.152;2023-12-29T01:47:44;1001.3;;;12.33;61.31
54459;BME280;40368;49.350;8.152;2023-12-29T01:48:44;1001.2;;;12.34;60.93
54459;BME280;40368;49.350;8.152;2023-12-29T01:49:45;1001.2;;;12.34;60.64
54459;BME280;40368;49.350;8.152;2023-12-29T01:50:44;1001.1;;;12.33;60.47
54459;BME280;40368;49.350;8.152;2023-12-29T01:51:44;1001.1;;;12.31;60.56
54459;BME280;40368;49.350;8.152;2023-12-29T01:52:44;1001.3;;;12.3;60.38
54459;BME280;40368;49.350;8.152;2023-12-29T01:53:44;1001.2;;;12.27;60.44
54459;BME280;40368;49.350;8.152;2023-12-29T01:54:44;1001.3;;;12.26;60.49
54459;BME280;40368;49.350;8.152;2023-12-29T01:55:44;1001.1;;;12.24;60.34
54459;BME280;40368;49.350;8.152;2023-12-29T01:56:44;1001.3;;;12.24;60.59
54459;BME280;40368;49.350;8.152;2023-12-29T01:57:44;1001.2;;;12.24;60.35
54459;BME280;40368;49.350;8.152;2023-12-29T01:58:45;1001.4;;;12.25;60.14
54459;BME280;40368;49.350;8.152;2023-12-29T01:59:44;1001.1;;;12.22;60.19
54459;BME280;40368;49.350;8.152;2023-12-29T02:00:44;1001.2;;;12.2;60.2
54459;BME280;40368;49.350;8.152;2023-12-29T02:01:44;1001.2;;;12.19;60.6
54459;BME280;40368;49.350;8.152;2023-12-29T02:02:44;1001.2;;;12.21;60.1
54459;BME280;40368;49.350;8.152;2023-12-29T02:03:44;1001.2;;;12.21;60.38
54459;BME280;40368;49.350;8.152;2023-12-29T02:04:44;1001.1;;;12.21;60.28
54459;BME280;40368;49.350;8.152;2023-12-29T02:05:44;1001.1;;;12.19;60.05
54459;BME280;40368;49.350;8.152;2023-12-29T02:06:44;1001.1;;;12.21;60.4
54459;BME280;40368;49.350;8.152;2023-12-29T02:07:44;1001.1;;;12.24;60.41
54459;BME280;40368;49.350;8.152;2023-12-29T02:08:44;1001.2;;;12.27;60.32
54459;BME280;40368;49.350;8.152;2023-12-29T02:09:44;1001.1;;;12.28;60.23
54459;BME280;40368;49.350;8.152;2023-12-29T02:10:44;1001.2;;;12.26;59.95
54459;BME280;40368;49.350;8.152;2023-12-29T02:11:44;1001.1;;;12.25;59.95
54459;BME280;40368;49.350;8.152;2023-12-29T02:12:44;1001.1;;;12.23;59.99
54459;BME280;40368;49.350;8.152;2023-12-29T02:13:44;1001.1;;;12.21;60.01
54459;BME280;40368;49.350;8.152;2023-12-29T02:14:44;1001;;;12.19;59.96
54459;BME280;40368;49.350;8.152;2023-12-29T02:15:44;1001.1;;;12.16;60.27
54459;BME280;40368;49.350;8.152;2023-12-29T02:16:45;1001.1;;;12.16;59.98
54459;BME280;40368;49.350;8.152;2023-12-29T02:17:44;1001.1;;;12.13;59.98
54459;BME280;40368;49.350;8.152;2023-12-29T02:18:44;1001;;;12.13;60.19
54459;BME280;40368;49.350;8.152;2023-12-29T02:19:45;1001;;;12.14;59.89
54459;BME280;40368;49.350;8.152;2023-12-29T02:20:44;1000.9;;;12.15;60.14
54459;BME280;40368;49.350;8.152;2023-12-29T02:21:44;1001;;;12.17;60.23
54459;BME280;40368;49.350;8.152;2023-12-29T02:22:44;1001.1;;;12.14;59.86
54459;BME280;40368;49.350;8.152;2023-12-29T02:23:44;1000.9;;;12.14;59.78
54459;BME280;40368;49.350;8.152;2023-12-29T02:24:44;1000.9;;;12.16;60.08
54459;BME280;40368;49.350;8.152;2023-12-29T02:25:44;1000.9;;;12.2;60.37
54459;BME280;40368;49.350;8.152;2023-12-29T02:26:44;1000.9;;;12.25;60.1
54459;BME280;40368;49.350;8.152;2023-12-29T02:27:46;1001;;;12.29;59.72
54459;BME280;40368;49.350;8.152;2023-12-29T02:28:44;1001;;;12.29;59.56
54459;BME280;40368;49.350;8.152;2023-12-29T02:29:44;1000.9;;;12.29;59.55
54459;BME280;40368;49.350;8.152;2023-12-29T02:30:45;1001;;;12.32;59.49
54459;BME280;40368;49.350;8.152;2023-12-29T02:31:44;1000.9;;;12.33;59.34
54459;BME280;40368;49.350;8.152;2023-12-29T02:32:45;1001;;;12.32;58.8
54459;BME280;40368;49.350;8.152;2023-12-29T02:33:44;1001;;;12.33;58.91
54459;BME280;40368;49.350;8.152;2023-12-29T02:34:44;1000.9;;;12.32;59.15
54459;BME280;40368;49.350;8.152;2023-12-29T02:35:44;1001.1;;;12.32;59.14
54459;BME280;40368;49.350;8.152;2023-12-29T02:36:44;1001;;;12.31;58.92
54459;BME280;40368;49.350;8.152;2023-12-29T02:37:44;1000.9;;;12.32;59.31
54459;BME280;40368;49.350;8.152;2023-12-29T02:38:44;1001;;;12.33;59.03
54459;BME280;40368;49.350;8.152;2023-12-29T02:39:44;1001.1;;;12.34;58.9
54459;BME280;40368;49.350;8.152;2023-12-29T02:40:44;1000.9;;;12.33;59.41
54459;BME280;40368;49.350;8.152;2023-12-29T02:41:44;1000.9;;;12.31;59.04
54459;BME280;40368;49.350;8.152;2023-12-29T02:42:44;1001;;;12.32;59.32
54459;BME280;40368;49.350;8.152;2023-12-29T02:43:44;1000.9;;;12.36;59.68
54459;BME280;40368;49.350;8.152;2023-12-29T02:44:44;1001.1;;;12.38;59.22
54459;BME280;40368;49.350;8.152;2023-12-29T02:45:44;1000.8;;;12.37;59.01
54459;BME280;40368;49.350;8.152;2023-12-29T02:46:44;1001.1;;;12.31;58.92
54459;BME280;40368;49.350;8.152;2023-12-29T02:47:44;1000.9;;;12.28;59
54459;BME280;40368;49.350;8.152;2023-12-29T02:48:44;1000.9;;;12.27;59.08
54459;BME280;40368;49.350;8.152;2023-12-29T02:49:44;1001;;;12.25;59.25
54459;BME280;40368;49.350;8.152;2023-12-29T02:50:44;1001.1;;;12.24;59.24
54459;BME280;40368;49.350;8.152;2023-12-29T02:51:44;1000.9;;;12.24;59.32
54459;BME280;40368;49.350;8.152;2023-12-29T02:52:45;1000.9;;;12.25;59.08
54459;BME280;40368;49.350;8.152;2023-12-29T02:53:44;1000.9;;;12.24;59.33
54459;BME280;40368;49.350;8.152;2023-12-29T02:54:44;1000.9;;;12.25;59.34
54459;BME280;40368;49.350;8.152;2023-12-29T02:55:45;1000.9;;;12.24;59.41
54459;BME280;40368;49.350;8.152;2023-12-29T02:56:44;1001;;;12.21;59.41
54459;BME280;40368;49.350;8.152;2023-12-29T02:57:44;1001.1;;;12.2;59.59
54459;BME280;40368;49.350;8.152;2023-12-29T02:58:44;1000.9;;;12.21;59.43
54459;BME280;40368;49.350;8.152;2023-12-29T02:59:44;1001;;;12.21;59.44
54459;BME280;40368;49.350;8.152;2023-12-29T03:00:44;1000.9;;;12.19;59.48
54459;BME280;40368;49.350;8.152;2023-12-29T03:01:44;1000.9;;;12.16;59.37
54459;BME280;40368;49.350;8.152;2023-12-29T03:02:44;1001.1;;;12.18;59.68
54459;BME280;40368;49.350;8.152;2023-12-29T03:03:44;1000.8;;;12.17;59.41
54459;BME280;40368;49.350;8.152;2023-12-29T03:04:45;1000.9;;;12.16;59.49
54459;BME280;40368;49.350;8.152;2023-12-29T03:05:44;1000.9;;;12.18;59.73
54459;BME280;40368;49.350;8.152;2023-12-29T03:06:44;1000.9;;;12.23;59.91
54459;BME280;40368;49.350;8.152;2023-12-29T03:07:44;1000.9;;;12.24;59.44
54459;BME280;40368;49.350;8.152;2023-12-29T03:08:44;1001;;;12.22;59.6
54459;BME280;40368;49.350;8.152;2023-12-29T03:09:44;1000.9;;;12.21;59.67
54459;BME280;40368;49.350;8.152;2023-12-29T03:10:44;1000.9;;;12.2;59.67
54459;BME280;40368;49.350;8.152;2023-12-29T03:11:44;1000.9;;;12.21;59.64
54459;BME280;40368;49.350;8.152;2023-12-29T03:12:44;1000.8;;;12.2;59.62
54459;BME280;40368;49.350;8.152;2023-12-29T03:13:44;1000.9;;;12.19;59.72
54459;BME280;40368;49.350;8.152;2023-12-29T03:14:44;1000.8;;;12.18;59.71
54459;BME280;40368;49.350;8.152;2023-12-29T03:15:44;1000.8;;;12.16;59.73
54459;BME280;40368;49.350;8.152;2023-12-29T03:16:44;1000.8;;;12.17;59.98
54459;BME280;40368;49.350;8.152;2023-12-29T03:17:44;1000.8;;;12.17;59.91
54459;BME280;40368;49.350;8.152;2023-12-29T03:18:45;1000.7;;;12.16;59.7
54459;BME280;40368;49.350;8.152;2023-12-29T03:19:44;1000.8;;;12.16;59.8
54459;BME280;40368;49.350;8.152;2023-12-29T03:20:44;1000.8;;;12.18;59.88
54459;BME280;40368;49.350;8.152;2023-12-29T03:21:44;1000.8;;;12.2;60.08
54459;BME280;40368;49.350;8.152;2023-12-29T03:22:44;1000.7;;;12.22;59.95
54459;BME280;40368;49.350;8.152;2023-12-29T03:23:44;1000.8;;;12.23;60.09
54459;BME280;40368;49.350;8.152;2023-12-29T03:24:44;1000.8;;;12.26;60.09
54459;BME280;40368;49.350;8.152;2023-12-29T03:25:44;1000.8;;;12.26;59.88
54459;BME280;40368;49.350;8.152;2023-12-29T03:26:44;1000.8;;;12.25;59.63
54459;BME280;40368;49.350;8.152;2023-12-29T03:27:45;1000.9;;;12.23;60.07
54459;BME280;40368;49.350;8.152;2023-12-29T03:28:44;1000.8;;;12.23;60.13
54459;BME280;40368;49.350;8.152;2023-12-29T03:29:44;1000.9;;;12.25;59.99
54459;BME280;40368;49.350;8.152;2023-12-29T03:30:44;1000.8;;;12.26;59.77
54459;BME280;40368;49.350;8.152;2023-12-29T03:31:44;1000.9;;;12.25;59.79
54459;BME280;40368;49.350;8.152;2023-12-29T03:32:44;1000.9;;;12.24;59.97
54459;BME280;40368;49.350;8.152;2023-12-29T03:33:44;1000.8;;;12.24;59.76
54459;BME280;40368;49.350;8.152;2023-12-29T03:34:45;1000.9;;;12.25;59.79
54459;BME280;40368;49.350;8.152;2023-12-29T03:35:44;1000.9;;;12.28;59.76
54459;BME280;40368;49.350;8.152;2023-12-29T03:36:44;1000.9;;;12.29;59.6
54459;BME280;40368;49.350;8.152;2023-12-29T03:37:45;1001;;;12.28;59.55
54459;BME280;40368;49.350;8.152;2023-12-29T03:38:44;1001.1;;;12.25;59.4
54459;BME280;40368;49.350;8.152;2023-12-29T03:39:44;1000.8;;;12.23;59.49
54459;BME280;40368;49.350;8.152;2023-12-29T03:40:44;1000.9;;;12.2;59.44
54459;BME280;40368;49.350;8.152;2023-12-29T03:41:44;1000.9;;;12.17;59.28
54459;BME280;40368;49.350;8.152;2023-12-29T03:42:44;1001;;;12.15;59.07
54459;BME280;40368;49.350;8.152;2023-12-29T03:43:45;1001;;;12.16;59.28
54459;BME280;40368;49.350;8.152;2023-12-29T03:44:44;1001.1;;;12.14;59.41
54459;BME280;40368;49.350;8.152;2023-12-29T03:45:44;1001;;;12.11;59.48
54459;BME280;40368;49.350;8.152;2023-12-29T03:46:44;1001;;;12.1;59.44
54459;BME280;40368;49.350;8.152;2023-12-29T03:47:44;1001;;;12.11;59.55
54459;BME280;40368;49.350;8.152;2023-12-29T03:48:44;1001;;;12.12;59.72
54459;BME280;40368;49.350;8.152;2023-12-29T03:49:44;1001;;;12.13;59.62
54459;BME280;40368;49.350;8.152;2023-12-29T03:50:44;1000.9;;;12.17;59.79
54459;BME280;40368;49.350;8.152;2023-12-29T03:51:44;1001;;;12.21;59.46
54459;BME280;40368;49.350;8.152;2023-12-29T03:52:45;1001;;;12.23;59.11
54459;BME280;40368;49.350;8.152;2023-12-29T03:53:44;1001;;;12.27;59.22
54459;BME280;40368;49.350;8.152;2023-12-29T03:54:44;1001;;;12.29;59.33
54459;BME280;40368;49.350;8.152;2023-12-29T03:55:45;1001;;;12.33;59.58
54459;BME280;40368;49.350;8.152;2023-12-29T03:56:44;1001;;;12.36;59.02
54459;BME280;40368;49.350;8.152;2023-12-29T03:57:44;1001;;;12.36;58.99
54459;BME280;40368;49.350;8.152;2023-12-29T03:58:44;1001;;;12.37;59.04
54459;BME280;40368;49.350;8.152;2023-12-29T03:59:44;1000.9;;;12.37;59.31
54459;BME280;40368;49.350;8.152;2023-12-29T04:00:44;1001;;;12.41;59.25
54459;BME280;40368;49.350;8.152;2023-12-29T04:01:44;1001;;;12.4;58.66
54459;BME280;40368;49.350;8.152;2023-12-29T04:02:44;1001;;;12.4;58.81
54459;BME280;40368;49.350;8.152;2023-12-29T04:03:44;1001;;;12.39;59.07
54459;BME280;40368;49.350;8.152;2023-12-29T04:04:44;1000.8;;;12.39;58.64
54459;BME280;40368;49.350;8.152;2023-12-29T04:05:44;1000.9;;;12.38;58.7
54459;BME280;40368;49.350;8.152;2023-12-29T04:06:44;1000.9;;;12.39;59.11
54459;BME280;40368;49.350;8.152;2023-12-29T04:07:44;1000.9;;;12.41;59.05
54459;BME280;40368;49.350;8.152;2023-12-29T04:08:45;1000.9;;;12.44;59.11
54459;BME280;40368;49.350;8.152;2023-12-29T04:09:44;1000.9;;;12.45;58.68
54459;BME280;40368;49.350;8.152;2023-12-29T04:10:44;1000.9;;;12.45;59.1
54459;BME280;40368;49.350;8.152;2023-12-29T04:11:44;1000.9;;;12.41;58.8
54459;BME280;40368;49.350;8.152;2023-12-29T04:12:44;1000.8;;;12.42;59.11
54459;BME280;40368;49.350;8.152;2023-12-29T04:13:45;1000.8;;;12.41;59.18
54459;BME280;40368;49.350;8.152;2023-12-29T04:14:44;1000.8;;;12.41;58.93
54459;BME280;40368;49.350;8.152;2023-12-29T04:15:44;1000.8;;;12.41;59.07
54459;BME280;40368;49.350;8.152;2023-12-29T04:16:44;1000.8;;;12.41;59.28
54459;BME280;40368;49.350;8.152;2023-12-29T04:17:44;1000.8;;;12.43;59.13
54459;BME280;40368;49.350;8.152;2023-12-29T04:18:44;1000.8;;;12.43;58.89
54459;BME280;40368;49.350;8.152;2023-12-29T04:19:44;1000.9;;;12.41;59.12
54459;BME280;40368;49.350;8.152;2023-12-29T04:20:44;1000.9;;;12.39;59.29
54459;BME280;40368;49.350;8.152;2023-12-29T04:21:44;1000.8;;;12.37;59.37
54459;BME280;40368;49.350;8.152;2023-12-29T04:22:44;1000.8;;;12.36;59.56
54459;BME280;40368;49.350;8.152;2023-12-29T04:23:44;1000.7;;;12.36;59.65
54459;BME280;40368;49.350;8.152;2023-12-29T04:24:45;1000.7;;;12.37;59.63
54459;BME280;40368;49.350;8.152;2023-12-29T04:25:44;1000.8;;;12.38;59.65
54459;BME280;40368;49.350;8.152;2023-12-29T04:26:45;1000.8;;;12.38;59.61
54459;BME280;40368;49.350;8.152;2023-12-29T04:27:44;1000.7;;;12.4;59.6
54459;BME280;40368;49.350;8.152;2023-12-29T04:28:45;1000.8;;;12.39;59.59
54459;BME280;40368;49.350;8.152;2023-12-29T04:29:44;1000.7;;;12.38;59.59
54459;BME280;40368;49.350;8.152;2023-12-29T04:30:44;1000.8;;;12.37;59.53
54459;BME280;40368;49.350;8.152;2023-12-29T04:31:44;1000.7;;;12.35;59.54
54459;BME280;40368;49.350;8.152;2023-12-29T04:32:45;1000.7;;;12.33;59.7
54459;BME280;40368;49.350;8.152;2023-12-29T04:33:44;1000.7;;;12.31;59.73
54459;BME280;40368;49.350;8.152;2023-12-29T04:34:44;1000.7;;;12.29;59.74
54459;BME280;40368;49.350;8.152;2023-12-29T04:35:44;1000.8;;;12.31;59.81
54459;BME280;40368;49.350;8.152;2023-12-29T04:36:44;1000.6;;;12.32;59.77
54459;BME280;40368;49.350;8.152;2023-12-29T04:37:44;1000.7;;;12.31;59.73
54459;BME280;40368;49.350;8.152;2023-12-29T04:38:44;1000.7;;;12.31;59.79
54459;BME280;40368;49.350;8.152;2023-12-29T04:39:44;1000.7;;;12.31;59.63
54459;BME280;40368;49.350;8.152;2023-12-29T04:40:44;1000.7;;;12.3;59.82
54459;BME280;40368;49.350;8.152;2023-12-29T04:41:44;1000.7;;;12.29;59.62
54459;BME280;40368;49.350;8.152;2023-12-29T04:42:44;1000.7;;;12.28;59.54
54459;BME280;40368;49.350;8.152;2023-12-29T04:43:44;1000.7;;;12.25;59.79
54459;BME280;40368;49.350;8.152;2023-12-29T04:44:44;1000.8;;;12.21;59.61
54459;BME280;40368;49.350;8.152;2023-12-29T04:45:44;1000.7;;;12.21;59.71
54459;BME280;40368;49.350;8.152;2023-12-29T04:46:44;1000.7;;;12.21;59.81
54459;BME280;40368;49.350;8.152;2023-12-29T04:47:44;1000.7;;;12.21;59.88
54459;BME280;40368;49.350;8.152;2023-12-29T04:48:44;1000.6;;;12.19;59.82
54459;BME280;40368;49.350;8.152;2023-12-29T04:49:44;1000.6;;;12.2;59.9
54459;BME280;40368;49.350;8.152;2023-12-29T04:50:44;1000.7;;;12.21;59.81
54459;BME280;40368;49.350;8.152;2023-12-29T04:51:44;1000.6;;;12.19;59.83
54459;BME280;40368;49.350;8.152;2023-12-29T04:52:44;1000.7;;;12.21;60.06
54459;BME280;40368;49.350;8.152;2023-12-29T04:53:44;1000.7;;;12.23;59.89
54459;BME280;40368;49.350;8.152;2023-12-29T04:54:44;1000.7;;;12.3;59.87
54459;BME280;40368;49.350;8.152;2023-12-29T04:55:44;1000.6;;;12.34;59.61
54459;BME280;40368;49.350;8.152;2023-12-29T04:56:44;1000.6;;;12.39;59.71
54459;BME280;40368;49.350;8.152;2023-12-29T04:57:44;1000.6;;;12.4;59.29
54459;BME280;40368;49.350;8.152;2023-12-29T04:58:44;1000.5;;;12.43;59.45
54459;BME280;40368;49.350;8.152;2023-12-29T04:59:44;1000.7;;;12.43;59.19
54459;BME280;40368;49.350;8.152;2023-12-29T05:00:44;1000.6;;;12.45;59.24
54459;BME280;40368;49.350;8.152;2023-12-29T05:01:44;1000.7;;;12.45;59.46
54459;BME280;40368;49.350;8.152;2023-12-29T05:02:44;1000.6;;;12.47;59.37
54459;BME280;40368;49.350;8.152;2023-12-29T05:03:44;1000.6;;;12.46;59.5
54459;BME280;40368;49.350;8.152;2023-12-29T05:04:44;1000.5;;;12.45;59.37
54459;BME280;40368;49.350;8.152;2023-12-29T05:05:44;1000.5;;;12.45;59.43
54459;BME280;40368;49.350;8.152;2023-12-29T05:06:44;1000.7;;;12.45;59.18
54459;BME280;40368;49.350;8.152;2023-12-29T05:07:44;1000.6;;;12.41;58.94
54459;BME280;40368;49.350;8.152;2023-12-29T05:08:44;1000.5;;;12.39;59.02
54459;BME280;40368;49.350;8.152;2023-12-29T05:09:44;1000.6;;;12.36;58.79
54459;BME280;40368;49.350;8.152;2023-12-29T05:10:44;1000.5;;;12.36;58.87
54459;BME280;40368;49.350;8.152;2023-12-29T05:11:44;1000.5;;;12.34;59.06
54459;BME280;40368;49.350;8.152;2023-12-29T05:12:44;1000.4;;;12.35;59.28
54459;BME280;40368;49.350;8.152;2023-12-29T05:13:44;1000.5;;;12.37;59.04
54459;BME280;40368;49.350;8.152;2023-12-29T05:14:44;1000.5;;;12.39;59.29
54459;BME280;40368;49.350;8.152;2023-12-29T05:15:44;1000.5;;;12.4;59.34
54459;BME280;40368;49.350;8.152;2023-12-29T05:16:44;1000.5;;;12.39;59.21
54459;BME280;40368;49.350;8.152;2023-12-29T05:17:44;1000.5;;;12.35;58.93
54459;BME280;40368;49.350;8.152;2023-12-29T05:18:44;1000.5;;;12.32;59.34
54459;BME280;40368;49.350;8.152;2023-12-29T05:19:44;1000.5;;;12.29;59.07
54459;BME280;40368;49.350;8.152;2023-12-29T05:20:44;1000.5;;;12.26;59.41
54459;BME280;40368;49.350;8.152;2023-12-29T05:21:44;1000.6;;;12.24;59.35
54459;BME280;40368;49.350;8.152;2023-12-29T05:22:44;1000.6;;;12.24;59.57
54459;BME280;40368;49.350;8.152;2023-12-29T05:23:44;1000.6;;;12.24;59.48
54459;BME280;40368;49.350;8.152;2023-12-29T05:24:44;1000.5;;;12.23;59.51
54459;BME280;40368;49.350;8.152;2023-12-29T05:25:44;1000.5;;;12.25;59.71
54459;BME280;40368;49.350;8.152;2023-12-29T05:26:44;1000.5;;;12.25;59.52
54459;BME280;40368;49.350;8.152;2023-12-29T05:27:44;1000.4;;;12.25;59.66
54459;BME280;40368;49.350;8.152;2023-12-29T05:28:44;1000.5;;;12.24;59.51
54459;BME280;40368;49.350;8.152;2023-12-29T05:29:44;1000.5;;;12.26;59.68